createdAt,value
2024-01-16T00:01:55.614Z,0.45
2024-01-16T00:06:57.741Z,0.42
2024-01-16T00:11:59.668Z,0.29
2024-01-16T00:17:01.939Z,0.45
2024-01-16T00:22:06.017Z,0.21
2024-01-16T00:27:10.543Z,0.13
2024-01-16T00:32:17.167Z,0.16
2024-01-16T00:37:19.399Z,0.25
2024-01-16T00:42:21.316Z,0.20
2024-01-16T00:47:23.375Z,0.22
2024-01-16T00:52:25.594Z,0.27
2024-01-16T00:57:28.051Z,0.36
2024-01-16T01:02:30.162Z,0.43
2024-01-16T01:07:32.331Z,0.41
2024-01-16T01:12:34.289Z,0.49
2024-01-16T01:17:36.383Z,0.41
2024-01-16T01:22:38.690Z,0.39
2024-01-16T01:27:41.116Z,0.54
2024-01-16T01:32:43.237Z,0.50
2024-01-16T01:37:45.227Z,0.50
2024-01-16T01:42:47.136Z,0.57
2024-01-16T01:47:49.571Z,0.58
2024-01-16T01:52:51.603Z,0.53
2024-01-16T01:57:53.901Z,0.68
2024-01-16T02:02:56.026Z,0.55
2024-01-16T02:07:58.137Z,0.62
2024-01-16T02:13:00.062Z,0.57
2024-01-16T02:18:02.005Z,0.60
2024-01-16T02:23:05.212Z,0.56
2024-01-16T02:28:07.142Z,0.48
2024-01-16T02:33:09.721Z,0.47
2024-01-16T02:38:11.890Z,0.64
2024-01-16T02:43:13.868Z,0.72
2024-01-16T02:48:16.736Z,0.70
2024-01-16T02:53:18.764Z,0.73
2024-01-16T02:58:20.731Z,0.78
2024-01-16T03:03:22.741Z,0.84
2024-01-16T03:08:24.762Z,0.81
2024-01-16T03:13:26.700Z,0.75
2024-01-16T03:18:28.959Z,0.69
2024-01-16T03:23:31.013Z,0.60
2024-01-16T03:28:32.988Z,0.59
2024-01-16T03:33:36.157Z,0.59
2024-01-16T03:38:38.241Z,0.65
2024-01-16T03:43:41.147Z,0.67
2024-01-16T03:48:43.229Z,0.48
2024-01-16T03:53:45.318Z,0.64
2024-01-16T03:58:47.337Z,0.74
2024-01-16T04:03:49.261Z,0.59
2024-01-16T04:08:51.278Z,0.56
2024-01-16T04:13:53.204Z,0.44
2024-01-16T04:18:55.558Z,0.39
2024-01-16T04:23:57.682Z,0.43
2024-01-16T04:28:59.772Z,0.56
2024-01-16T04:34:01.825Z,0.56
2024-01-16T04:39:05.078Z,0.60
2024-01-16T04:44:07.123Z,0.51
2024-01-16T04:49:09.375Z,0.41
2024-01-16T04:54:12.790Z,0.46
2024-01-16T04:59:16.996Z,0.49
2024-01-16T05:04:19.480Z,0.53
2024-01-16T05:09:21.399Z,0.52
2024-01-16T05:14:26.226Z,0.38
2024-01-16T05:19:28.282Z,0.25
2024-01-16T05:24:30.494Z,0.20
2024-01-16T05:29:32.578Z,0.22
2024-01-16T05:34:34.673Z,0.18
2024-01-16T05:39:37.880Z,0.33
2024-01-16T05:44:40.005Z,0.25
2024-01-16T05:49:43.194Z,0.26
2024-01-16T05:54:45.279Z,0.26
2024-01-16T05:59:47.768Z,0.15
2024-01-16T06:04:49.776Z,0.13
2024-01-16T06:09:51.701Z,0.27
2024-01-16T06:14:53.759Z,0.31
2024-01-16T06:19:55.954Z,0.39
2024-01-16T06:24:57.959Z,0.41
2024-01-16T06:29:59.985Z,0.21
2024-01-16T06:35:01.982Z,-0.01
2024-01-16T06:40:05.398Z,-0.20
2024-01-16T06:45:07.906Z,-0.43
2024-01-16T06:50:10.032Z,-0.46
2024-01-16T06:55:12.250Z,-0.44
2024-01-16T07:00:15.529Z,-0.50
2024-01-16T07:05:17.857Z,-0.56
2024-01-16T07:10:19.945Z,-0.79
2024-01-16T07:15:21.895Z,-0.85
2024-01-16T07:20:23.856Z,-0.91
2024-01-16T07:25:25.816Z,-0.88
2024-01-16T07:30:27.769Z,-0.68
2024-01-16T07:35:29.758Z,-0.64
2024-01-16T07:40:31.722Z,-0.53
2024-01-16T07:45:33.913Z,-0.48
2024-01-16T07:50:35.871Z,-0.35
2024-01-16T07:55:37.948Z,-0.33
2024-01-16T08:00:40.639Z,-0.27
2024-01-16T08:05:42.964Z,-0.23
2024-01-16T08:10:45.287Z,-0.16
2024-01-16T08:15:47.314Z,-0.00
2024-01-16T08:20:49.321Z,0.08
2024-01-16T08:25:52.801Z,0.09
2024-01-16T08:30:54.920Z,-0.08
2024-01-16T08:35:56.892Z,-0.14
2024-01-16T08:40:59.211Z,-0.03
2024-01-16T08:46:01.186Z,-0.12
2024-01-16T08:51:08.510Z,0.19
2024-01-16T08:56:10.887Z,0.47
2024-01-16T09:01:12.981Z,0.77
2024-01-16T09:06:15.137Z,0.66
2024-01-16T09:11:17.179Z,0.67
2024-01-16T09:16:19.160Z,0.97
2024-01-16T09:21:21.190Z,1.00
2024-01-16T09:26:23.178Z,0.85
2024-01-16T09:31:25.953Z,1.30
2024-01-16T09:36:28.022Z,1.78
2024-01-16T09:41:30.147Z,2.09
2024-01-16T09:46:33.152Z,2.03
2024-01-16T09:51:35.109Z,2.04
2024-01-16T09:56:43.162Z,1.88
2024-01-16T10:01:46.146Z,1.68
2024-01-16T10:06:49.455Z,1.88
2024-01-16T10:11:51.802Z,2.17
2024-01-16T10:17:07.266Z,2.40
2024-01-16T10:22:09.528Z,2.10
2024-01-16T10:27:11.506Z,2.08
2024-01-16T10:32:14.064Z,2.00
2024-01-16T10:37:16.962Z,1.92
2024-01-16T10:42:21.271Z,2.05
2024-01-16T10:47:24.233Z,2.36
2024-01-16T10:52:29.855Z,2.63
2024-01-16T10:57:36.323Z,2.65
2024-01-16T11:03:11.008Z,3.11
2024-01-16T11:08:18.206Z,3.29
2024-01-16T11:13:22.612Z,3.42
2024-01-16T11:18:26.216Z,3.24
2024-01-16T11:23:28.530Z,3.38
2024-01-16T11:28:31.935Z,3.24
2024-01-16T11:33:34.107Z,2.87
2024-01-16T11:38:36.586Z,2.54
2024-01-16T11:43:39.312Z,2.27
2024-01-16T11:48:41.596Z,2.29
2024-01-16T11:53:46.574Z,2.35
2024-01-16T11:59:25.852Z,2.22
2024-01-16T12:04:28.894Z,2.20
2024-01-16T12:09:30.983Z,2.20
2024-01-16T12:14:33.539Z,2.02
2024-01-16T12:19:36.024Z,1.75
2024-01-16T12:24:39.114Z,2.07
2024-01-16T12:29:44.008Z,2.16
2024-01-16T12:34:50.096Z,2.15
2024-01-16T12:39:53.312Z,1.91
2024-01-16T12:44:55.962Z,2.05
2024-01-16T12:49:58.011Z,2.03
2024-01-16T12:55:05.870Z,1.93
2024-01-16T13:00:25.204Z,1.71
2024-01-16T13:05:27.351Z,1.86
2024-01-16T13:10:31.508Z,1.83
2024-01-16T13:15:33.415Z,1.92
2024-01-16T13:20:35.349Z,2.09
2024-01-16T13:25:37.505Z,1.82
2024-01-16T13:30:46.968Z,1.72
2024-01-16T13:35:49.822Z,1.51
2024-01-16T13:40:51.956Z,1.28
2024-01-16T13:45:53.934Z,1.00
2024-01-16T13:50:55.963Z,1.01
2024-01-16T13:55:59.334Z,1.24
2024-01-16T14:01:01.330Z,1.66
2024-01-16T14:06:05.574Z,1.96
2024-01-16T14:11:07.568Z,1.96
2024-01-16T14:16:09.749Z,1.80
2024-01-16T14:21:11.700Z,1.76
2024-01-16T14:26:13.720Z,1.73
2024-01-16T14:31:15.906Z,1.89
2024-01-16T14:36:19.388Z,2.01
2024-01-16T14:41:22.691Z,2.28
2024-01-16T14:46:24.800Z,2.09
2024-01-16T14:51:26.867Z,2.07
2024-01-16T14:56:29.154Z,1.80
2024-01-16T15:01:31.137Z,1.98
2024-01-16T15:06:33.533Z,1.93
2024-01-16T15:11:35.601Z,1.78
2024-01-16T15:16:37.564Z,1.46
2024-01-16T15:21:40.800Z,1.05
2024-01-16T15:26:42.913Z,0.84
2024-01-16T15:31:44.938Z,0.66
2024-01-16T15:36:47.686Z,0.58
2024-01-16T15:41:49.728Z,0.49
2024-01-16T15:46:58.738Z,0.39
2024-01-16T15:52:00.681Z,0.25
2024-01-16T15:57:02.749Z,0.08
2024-01-16T16:02:04.964Z,-0.07
2024-01-16T16:07:08.618Z,-0.24
2024-01-16T16:12:10.525Z,-0.44
2024-01-16T16:17:12.826Z,-0.61
2024-01-16T16:22:15.150Z,-0.78
2024-01-16T16:27:25.369Z,-0.87
2024-01-16T16:32:27.545Z,-0.96
2024-01-16T16:37:29.888Z,-1.04
2024-01-16T16:42:32.517Z,-1.10
2024-01-16T16:47:34.664Z,-1.16
2024-01-16T16:52:38.224Z,-1.16
2024-01-16T16:57:40.909Z,-1.18
2024-01-16T17:02:42.887Z,-1.25
2024-01-16T17:07:45.608Z,-1.34
2024-01-16T17:12:47.706Z,-1.46
2024-01-16T17:17:49.808Z,-1.56
2024-01-16T17:22:51.823Z,-1.69
2024-01-16T17:27:53.822Z,-1.78
2024-01-16T17:32:55.889Z,-1.88
2024-01-16T17:37:57.980Z,-1.93
2024-01-16T17:42:59.971Z,-1.89
2024-01-16T17:48:02.098Z,-1.92
2024-01-16T17:53:08.271Z,-2.00
2024-01-16T17:58:11.778Z,-2.11
2024-01-16T18:03:27.801Z,-2.21
2024-01-16T18:08:39.142Z,-2.29
2024-01-16T18:13:43.799Z,-2.38
2024-01-16T18:18:46.694Z,-2.39
2024-01-16T18:23:49.121Z,-2.40
2024-01-16T18:28:51.906Z,-2.47
2024-01-16T18:33:54.272Z,-2.61
2024-01-16T18:38:56.397Z,-2.72
2024-01-16T18:43:58.333Z,-2.75
2024-01-16T18:49:00.416Z,-2.74
2024-01-16T18:54:02.733Z,-2.82
2024-01-16T18:59:05.948Z,-2.95
2024-01-16T19:04:13.622Z,-2.97
2024-01-16T19:09:16.724Z,-3.01
2024-01-16T19:14:18.830Z,-3.03
2024-01-16T19:19:21.895Z,-3.09
2024-01-16T19:24:23.931Z,-3.14
2024-01-16T19:29:26.660Z,-3.22
2024-01-16T19:34:28.708Z,-3.26
2024-01-16T19:39:34.042Z,-3.28
2024-01-16T19:44:36.216Z,-3.35
2024-01-16T19:49:38.345Z,-3.43
2024-01-16T19:54:40.325Z,-3.47
2024-01-16T19:59:43.510Z,-3.75
2024-01-16T20:04:45.489Z,-3.86
2024-01-16T20:09:47.645Z,-3.97
2024-01-16T20:14:49.920Z,-3.96
2024-01-16T20:19:51.926Z,-3.94
2024-01-16T20:24:55.475Z,-3.90
2024-01-16T20:29:57.664Z,-3.99
2024-01-16T20:34:59.821Z,-4.02
2024-01-16T20:40:01.884Z,-3.99
2024-01-16T20:45:06.839Z,-4.03
2024-01-16T20:50:11.224Z,-4.18
2024-01-16T20:55:13.618Z,-4.16
2024-01-16T21:00:16.106Z,-4.20
2024-01-16T21:05:18.206Z,-4.17
2024-01-16T21:10:20.431Z,-4.15
2024-01-16T21:15:22.455Z,-4.19
2024-01-16T21:20:24.586Z,-4.24
2024-01-16T21:25:26.606Z,-4.27
2024-01-16T21:30:28.704Z,-4.37
2024-01-16T21:35:30.734Z,-4.41
2024-01-16T21:40:33.754Z,-4.46
2024-01-16T21:45:36.231Z,-4.61
2024-01-16T21:50:38.736Z,-4.72
2024-01-16T21:55:40.795Z,-4.92
2024-01-16T22:00:42.762Z,-5.00
2024-01-16T22:05:44.783Z,-5.05
2024-01-16T22:10:46.842Z,-5.02
2024-01-16T22:15:49.361Z,-5.10
2024-01-16T22:20:51.393Z,-5.05
2024-01-16T22:25:53.979Z,-5.05
2024-01-16T22:30:56.858Z,-5.12
2024-01-16T22:35:59.094Z,-5.36
2024-01-16T22:41:01.236Z,-5.36
2024-01-16T22:46:03.257Z,-5.29
2024-01-16T22:51:05.493Z,-5.34
2024-01-16T22:56:07.522Z,-5.42
2024-01-16T23:01:10.278Z,-5.41
2024-01-16T23:06:17.839Z,-5.59
2024-01-16T23:11:20.020Z,-5.58
2024-01-16T23:16:22.577Z,-5.47
2024-01-16T23:21:25.423Z,-5.44
2024-01-16T23:26:27.479Z,-5.61
2024-01-16T23:31:30.944Z,-5.82
2024-01-16T23:36:34.280Z,-5.96
2024-01-16T23:41:36.215Z,-6.02
2024-01-16T23:46:40.124Z,-6.01
2024-01-16T23:51:42.185Z,-6.10
2024-01-16T23:56:44.111Z,-6.05
